Time;durP1;ratioP1;P1;durP2;ratioP2;P2;SDS_P1;SDS_P2;PMS_P1;PMS_P2;Temp;Humidity;BMP_temperature;BMP_pressure;BME280_temperature;BME280_humidity;BME280_pressure;Samples;Min_cycle;Max_cycle;Signal;HPM_P1;HPM_P2
2022/09/13 00:02:01;;;;;;;9.40;6.50;;;14.60;1.00;;;;;;6079956;23;20437;-80
2022/09/13 00:04:27;;;;;;;10.73;6.47;;;14.60;1.00;;;;;;6080167;23;20440;-78
2022/09/13 00:06:54;;;;;;;8.80;6.60;;;14.60;1.00;;;;;;6081539;23;20438;-78
2022/09/13 00:09:26;;;;;;;9.93;6.40;;;14.60;1.00;;;;;;6081861;23;20424;-79
2022/09/13 00:11:54;;;;;;;8.50;6.07;;;14.60;1.00;;;;;;6067201;23;20429;-79
2022/09/13 00:14:25;;;;;;;8.30;5.73;;;14.60;1.00;;;;;;6078013;23;20457;-80
2022/09/13 00:16:53;;;;;;;8.33;6.53;;;14.60;1.00;;;;;;6065329;23;20496;-79
2022/09/13 00:19:25;;;;;;;8.97;6.50;;;14.60;1.00;;;;;;6049114;23;20414;-79
2022/09/13 00:21:54;;;;;;;8.17;6.50;;;14.60;1.00;;;;;;6078017;23;20465;-80
2022/09/13 00:24:29;;;;;;;10.13;6.30;;;14.60;1.00;;;;;;6063498;23;20397;-80
2022/09/13 00:27:26;;;;;;;;;;;;;;;;;;;;;
2022/09/13 00:29:54;;;;;;;8.27;6.07;;;14.50;1.00;;;;;;6070027;23;49989;-79
2022/09/13 00:32:24;;;;;;;7.70;6.20;;;14.50;1.00;;;;;;6064807;23;20443;-79
2022/09/13 00:34:51;;;;;;;8.23;5.90;;;14.60;1.00;;;;;;6076614;23;20417;-78
2022/09/13 00:37:25;;;;;;;8.83;6.40;;;14.60;1.00;;;;;;6061393;23;20426;-77
2022/09/13 00:39:53;;;;;;;8.33;6.40;;;14.60;1.00;;;;;;6078367;23;20500;-78
2022/09/13 00:42:27;;;;;;;9.90;6.80;;;14.50;1.00;;;;;;6073393;23;20516;-77
2022/09/13 00:45:01;;;;;;;8.30;5.67;;;14.50;1.00;;;;;;6079118;23;20421;-78
2022/09/13 00:47:36;;;;;;;8.07;6.70;;;14.40;1.00;;;;;;6077767;23;20425;-76
2022/09/13 00:50:11;;;;;;;7.70;5.50;;;14.30;1.00;;;;;;6078651;23;20464;-78
2022/09/13 00:52:43;;;;;;;7.80;5.60;;;14.30;1.00;;;;;;6051041;23;20401;-78
2022/09/13 00:55:16;;;;;;;10.70;6.37;;;14.30;1.00;;;;;;6080562;23;20465;-83
2022/09/13 00:57:45;;;;;;;8.60;6.30;;;14.20;1.00;;;;;;6068726;23;20497;-83
2022/09/13 01:00:16;;;;;;;7.90;6.50;;;14.10;1.00;;;;;;6082096;23;20517;-83
2022/09/13 01:02:48;;;;;;;8.23;5.77;;;14.20;1.00;;;;;;6079913;23;20476;-79
2022/09/13 01:05:16;;;;;;;9.13;5.80;;;14.20;1.00;;;;;;6062372;23;20417;-78
2022/09/13 01:07:45;;;;;;;9.13;6.57;;;14.10;1.00;;;;;;6079084;23;20473;-80
2022/09/13 01:10:12;;;;;;;9.40;5.43;;;14.20;1.00;;;;;;6078918;23;21075;-78
2022/09/13 01:12:52;;;;;;;7.97;5.67;;;14.20;1.00;;;;;;6065004;23;20417;-79
2022/09/13 01:15:28;;;;;;;6.80;5.00;;;14.20;1.00;;;;;;6079384;23;20472;-79
2022/09/13 01:17:59;;;;;;;8.00;5.47;;;14.20;1.00;;;;;;6085544;23;20433;-79
2022/09/13 01:20:40;;;;;;;7.90;5.43;;;14.20;1.00;;;;;;6086206;23;20434;-81
2022/09/13 01:23:49;;;;;;;7.33;5.90;;;14.20;1.00;;;;;;6084792;23;20425;-78
2022/09/13 01:26:51;;;;;;;8.00;5.10;;;14.20;1.00;;;;;;6014406;23;20937;-79
2022/09/13 01:29:48;;;;;;;9.53;5.77;;;14.10;1.00;;;;;;6081730;23;20385;-79
2022/09/13 01:32:34;;;;;;;8.73;6.20;;;14.00;1.00;;;;;;6053579;23;20417;-80
2022/09/13 01:35:14;;;;;;;7.60;4.97;;;14.00;1.00;;;;;;6078628;23;20438;-79
2022/09/13 01:37:58;;;;;;;7.33;5.50;;;14.00;1.00;;;;;;6072934;23;20444;-79
2022/09/13 01:40:37;;;;;;;7.23;5.63;;;14.00;1.00;;;;;;6080200;23;20456;-79
2022/09/13 01:43:32;;;;;;;9.90;8.40;;;14.00;1.00;;;;;;6077823;23;20453;-78
2022/09/13 01:46:09;;;;;;;9.90;5.70;;;14.00;1.00;;;;;;6079911;23;20938;-84
2022/09/13 01:48:54;;;;;;;7.30;5.63;;;13.90;1.00;;;;;;6081015;23;20429;-83
2022/09/13 01:51:33;;;;;;;7.60;5.40;;;13.90;1.00;;;;;;6082458;23;20468;-78
2022/09/13 01:54:20;;;;;;;12.13;6.23;;;13.80;1.00;;;;;;6078888;23;20422;-79
2022/09/13 01:56:59;;;;;;;9.57;6.13;;;13.80;1.00;;;;;;6072179;23;20858;-79
2022/09/13 01:59:39;;;;;;;8.23;5.47;;;13.80;1.00;;;;;;6077683;23;20449;-82
2022/09/13 02:02:10;;;;;;;7.40;5.40;;;13.80;1.00;;;;;;6056132;23;20489;-83
2022/09/13 02:04:46;;;;;;;9.63;5.17;;;13.80;1.00;;;;;;6080119;23;20413;-81
2022/09/13 02:07:23;;;;;;;11.10;5.67;;;13.80;1.00;;;;;;6075310;23;20432;-80
2022/09/13 02:10:00;;;;;;;7.40;6.10;;;13.80;1.00;;;;;;6077524;23;20639;-81
2022/09/13 02:12:40;;;;;;;6.60;5.07;;;13.80;1.00;;;;;;6079849;23;20407;-80
2022/09/13 02:15:12;;;;;;;7.30;5.57;;;13.80;1.00;;;;;;6078961;23;20784;-78
2022/09/13 02:17:42;;;;;;;8.70;5.97;;;13.80;1.00;;;;;;6075728;23;20477;-79
2022/09/13 02:20:30;;;;;;;7.37;5.67;;;13.70;1.00;;;;;;6076968;23;20447;-80
2022/09/13 02:23:13;;;;;;;7.40;5.43;;;13.60;1.00;;;;;;6081842;23;20570;-82
2022/09/13 02:25:42;;;;;;;9.03;5.97;;;13.60;1.00;;;;;;6081585;23;20414;-79
2022/09/13 02:28:18;;;;;;;11.73;6.60;;;13.50;1.00;;;;;;6069118;23;20458;-78
2022/09/13 02:30:52;;;;;;;8.23;5.30;;;13.50;1.00;;;;;;6053729;23;20404;-78
2022/09/13 02:33:29;;;;;;;8.27;6.60;;;13.50;1.00;;;;;;6067085;23;20489;-79
2022/09/13 02:36:09;;;;;;;9.43;6.13;;;13.50;1.00;;;;;;6075939;23;20524;-79
2022/09/13 02:38:50;;;;;;;9.63;6.47;;;13.50;1.00;;;;;;6063307;23;20393;-80
2022/09/13 02:41:33;;;;;;;8.80;5.93;;;13.50;1.00;;;;;;6082083;23;20405;-78
2022/09/13 02:44:09;;;;;;;10.97;5.90;;;13.40;1.00;;;;;;6069036;23;20425;-78
2022/09/13 02:47:11;;;;;;;8.40;6.30;;;13.40;1.00;;;;;;6083165;23;20374;-80
2022/09/13 02:49:59;;;;;;;14.90;12.10;;;13.40;1.00;;;;;;6081172;23;20385;-78
2022/09/13 02:52:53;;;;;;;9.57;6.10;;;13.40;1.00;;;;;;6080004;23;20402;-83
2022/09/13 02:55:34;;;;;;;11.30;7.40;;;13.40;1.00;;;;;;6083306;23;20396;-77
2022/09/13 02:58:12;;;;;;;11.00;7.70;;;13.40;1.00;;;;;;6079702;23;20898;-78
2022/09/13 03:00:42;;;;;;;7.80;6.50;;;13.40;1.00;;;;;;6077178;23;20425;-78
2022/09/13 03:03:15;;;;;;;9.13;6.63;;;13.40;1.00;;;;;;6077987;23;20531;-80
2022/09/13 03:05:43;;;;;;;8.13;6.70;;;13.40;1.00;;;;;;6074959;23;20426;-79
2022/09/13 03:08:14;;;;;;;7.37;6.27;;;13.50;1.00;;;;;;6078748;23;20373;-78
2022/09/13 03:10:57;;;;;;;8.07;6.60;;;13.50;1.00;;;;;;6081451;23;20393;-82
2022/09/13 03:13:42;;;;;;;9.70;6.57;;;13.50;1.00;;;;;;6083239;23;20614;-80
2022/09/13 03:16:30;;;;;;;10.30;6.17;;;13.50;1.00;;;;;;6078792;23;20417;-79
2022/09/13 03:19:17;;;;;;;8.70;7.00;;;13.40;1.00;;;;;;6079671;23;20425;-82
2022/09/13 03:22:01;;;;;;;8.27;6.10;;;13.40;1.00;;;;;;6078879;23;21120;-82
2022/09/13 03:24:53;;;;;;;10.10;7.10;;;13.30;1.00;;;;;;6082250;23;20462;-80
2022/09/13 03:27:34;;;;;;;8.00;6.50;;;13.40;1.00;;;;;;6082795;23;20421;-80
2022/09/13 03:30:05;;;;;;;10.80;7.50;;;13.40;1.00;;;;;;6080056;23;20724;-82
2022/09/13 03:32:41;;;;;;;8.17;6.20;;;13.40;1.00;;;;;;6079579;23;20790;-82
2022/09/13 03:35:19;;;;;;;11.40;10.17;;;13.40;1.00;;;;;;6081666;23;20416;-80
2022/09/13 03:38:00;;;;;;;10.93;8.97;;;13.30;1.00;;;;;;6083909;23;20524;-85
2022/09/13 03:40:44;;;;;;;11.37;9.23;;;13.30;1.00;;;;;;6087532;23;20409;-86
2022/09/13 03:43:20;;;;;;;11.43;7.23;;;13.20;1.00;;;;;;6088317;23;20409;-81
2022/09/13 03:46:02;;;;;;;9.70;7.37;;;13.30;1.00;;;;;;6082778;23;20403;-85
2022/09/13 03:48:32;;;;;;;8.80;7.10;;;13.20;1.00;;;;;;6086420;23;20404;-82
2022/09/13 03:51:08;;;;;;;10.97;7.50;;;13.30;1.00;;;;;;6081783;23;20402;-85
2022/09/13 03:53:42;;;;;;;8.50;6.30;;;13.30;1.00;;;;;;6061914;23;20460;-86
2022/09/13 03:56:15;;;;;;;9.53;7.63;;;13.20;1.00;;;;;;6087683;23;20389;-84
2022/09/13 03:58:42;;;;;;;9.33;7.30;;;13.20;1.00;;;;;;6082787;23;20873;-79
2022/09/13 04:01:11;;;;;;;10.73;8.20;;;13.30;1.00;;;;;;6082749;23;21197;-81
2022/09/13 04:03:53;;;;;;;10.20;7.20;;;13.30;1.00;;;;;;6077205;23;20409;-81
2022/09/13 04:06:24;;;;;;;9.80;8.10;;;13.30;1.00;;;;;;6069689;23;20400;-81
2022/09/13 04:09:00;;;;;;;10.00;6.90;;;13.30;1.00;;;;;;6086190;23;20602;-81
2022/09/13 04:11:43;;;;;;;10.27;7.70;;;13.30;1.00;;;;;;6059341;23;20571;-80
2022/09/13 04:14:21;;;;;;;9.23;7.00;;;13.30;1.00;;;;;;6045405;23;20524;-80
2022/09/13 04:19:43;;;;;;;10.40;8.40;;;13.40;1.00;;;;;;6039249;23;20429;-79
2022/09/13 04:22:13;;;;;;;9.10;7.57;;;13.50;1.00;;;;;;6080281;23;20933;-81
2022/09/13 04:24:42;;;;;;;10.30;8.23;;;13.50;1.00;;;;;;6080716;23;20397;-81
2022/09/13 04:27:11;;;;;;;8.63;7.47;;;13.60;1.00;;;;;;6080660;23;20421;-80
2022/09/13 04:29:41;;;;;;;10.47;7.53;;;13.60;1.00;;;;;;6081352;23;20390;-79
2022/09/13 04:32:09;;;;;;;9.97;7.67;;;13.60;1.00;;;;;;6080925;23;20422;-80
2022/09/13 04:34:44;;;;;;;9.70;7.53;;;13.60;1.00;;;;;;6078003;23;20404;-79
2022/09/13 04:37:12;;;;;;;8.50;6.60;;;13.70;1.00;;;;;;6053541;23;21043;-77
2022/09/13 04:39:41;;;;;;;9.87;7.90;;;13.70;1.00;;;;;;6079555;23;20453;-81
2022/09/13 04:42:12;;;;;;;10.40;6.77;;;13.70;1.00;;;;;;6077855;23;20508;-81
2022/09/13 04:44:43;;;;;;;11.43;8.80;;;13.60;1.00;;;;;;6051322;23;20907;-79
2022/09/13 04:47:12;;;;;;;9.83;7.63;;;13.60;1.00;;;;;;6062629;23;20422;-80
2022/09/13 04:49:44;;;;;;;9.03;7.33;;;13.70;1.00;;;;;;6075336;23;20398;-82
2022/09/13 04:52:11;;;;;;;11.37;8.67;;;13.70;1.00;;;;;;6076126;23;20467;-81
2022/09/13 04:54:59;;;;;;;8.80;7.17;;;13.60;1.00;;;;;;6077729;23;20425;-81
2022/09/13 04:57:33;;;;;;;9.87;7.40;;;13.60;1.00;;;;;;6080072;23;20394;-82
2022/09/13 05:00:24;;;;;;;9.50;8.00;;;13.60;1.00;;;;;;6083341;23;20402;-80
2022/09/13 05:02:58;;;;;;;10.23;7.50;;;13.60;1.00;;;;;;6081476;23;20410;-80
2022/09/13 05:05:27;;;;;;;9.80;8.07;;;13.60;1.00;;;;;;6075691;23;20450;-80
2022/09/13 05:07:56;;;;;;;9.57;7.50;;;13.70;1.00;;;;;;6077538;23;20468;-79
2022/09/13 05:10:23;;;;;;;11.37;8.30;;;13.80;1.00;;;;;;6079246;23;20837;-83
2022/09/13 05:13:00;;;;;;;9.43;7.90;;;13.90;1.00;;;;;;6083623;23;20472;-81
2022/09/13 05:15:30;;;;;;;10.10;8.23;;;13.90;1.00;;;;;;6081901;23;20417;-80
2022/09/13 05:18:11;;;;;;;10.53;8.10;;;14.00;1.00;;;;;;6081454;23;20397;-79
2022/09/13 05:20:42;;;;;;;9.80;8.10;;;14.10;1.00;;;;;;6081806;23;20432;-78
2022/09/13 05:23:11;;;;;;;8.90;7.53;;;14.20;1.00;;;;;;6055405;23;20431;-80
2022/09/13 05:25:46;;;;;;;9.60;8.27;;;14.30;1.00;;;;;;6076593;23;20493;-79
2022/09/13 05:28:14;;;;;;;9.37;7.63;;;14.30;1.00;;;;;;6053922;23;20424;-78
2022/09/13 05:33:28;;;;;;;12.93;8.73;;;14.40;1.00;;;;;;6069058;23;20393;-83
2022/09/13 05:36:12;;;;;;;10.67;8.37;;;14.50;1.00;;;;;;6084468;23;20429;-84
2022/09/13 05:38:43;;;;;;;10.00;7.87;;;14.60;1.00;;;;;;6080251;23;20426;-83
2022/09/13 05:41:13;;;;;;;9.10;7.60;;;14.70;1.00;;;;;;6084460;23;20596;-82
2022/09/13 05:43:44;;;;;;;11.43;8.10;;;14.70;1.00;;;;;;6082708;23;20416;-80
2022/09/13 05:46:24;;;;;;;13.60;7.80;;;14.70;1.00;;;;;;6084229;23;20444;-82
2022/09/13 05:49:01;;;;;;;9.60;7.70;;;14.70;1.00;;;;;;6082015;23;20403;-81
2022/09/13 05:51:32;;;;;;;9.83;7.67;;;14.70;1.00;;;;;;6080611;23;20389;-82
2022/09/13 05:54:03;;;;;;;10.43;7.73;;;14.80;1.00;;;;;;6081293;23;20408;-79
2022/09/13 05:56:31;;;;;;;9.37;7.77;;;14.70;1.00;;;;;;6068969;23;20405;-80
2022/09/13 05:59:04;;;;;;;11.00;8.50;;;14.70;1.00;;;;;;6086703;23;20405;-83
2022/09/13 06:01:32;;;;;;;10.63;8.77;;;14.70;1.00;;;;;;6057496;23;20414;-81
2022/09/13 06:04:02;;;;;;;11.70;9.80;;;14.70;1.00;;;;;;6078128;23;20396;-83
2022/09/13 06:06:29;;;;;;;11.93;8.97;;;14.70;1.00;;;;;;6081243;23;20957;-81
2022/09/13 06:09:05;;;;;;;10.77;8.83;;;14.60;1.00;;;;;;6081669;23;20424;-81
2022/09/13 06:11:32;;;;;;;11.43;8.60;;;14.40;1.00;;;;;;6085153;23;20446;-82
2022/09/13 06:14:20;;;;;;;12.50;10.40;;;14.30;1.00;;;;;;6071466;23;20438;-83
2022/09/13 06:17:03;;;;;;;11.87;9.27;;;14.20;1.00;;;;;;6083297;23;20432;-82
2022/09/13 06:19:34;;;;;;;13.57;11.77;;;14.10;1.00;;;;;;6065893;23;20460;-84
2022/09/13 06:22:04;;;;;;;12.97;11.57;;;14.10;1.00;;;;;;6081462;23;20520;-85
2022/09/13 06:24:31;;;;;;;14.53;12.30;;;14.10;1.00;;;;;;6068655;23;20429;-85
2022/09/13 06:27:09;;;;;;;15.10;10.80;;;14.10;1.00;;;;;;6069331;23;20974;-84
2022/09/13 06:29:55;;;;;;;;;;;;;;;;;;;;;
2022/09/13 06:32:23;;;;;;;12.87;11.23;;;14.10;1.00;;;;;;6081450;23;42914;-84
2022/09/13 06:37:44;;;;;;;13.07;11.60;;;14.10;1.00;;;;;;5993759;23;20487;-85
2022/09/13 06:40:26;;;;;;;15.60;12.00;;;14.00;1.00;;;;;;6068849;23;20445;-87
2022/09/13 06:42:53;;;;;;;15.63;13.87;;;14.00;1.00;;;;;;6079577;23;20401;-83
2022/09/13 06:45:23;;;;;;;15.20;13.67;;;14.00;1.00;;;;;;6063572;23;20587;-85
2022/09/13 06:48:02;;;;;;;15.07;13.57;;;14.10;1.00;;;;;;6091974;23;20401;-85
2022/09/13 06:50:32;;;;;;;13.90;12.43;;;14.20;1.00;;;;;;6068264;23;20417;-84
2022/09/13 06:53:04;;;;;;;15.60;12.50;;;14.30;1.00;;;;;;6081963;23;20429;-84
2022/09/13 06:55:34;;;;;;;14.40;12.90;;;14.40;1.00;;;;;;6082317;23;20405;-85
2022/09/13 06:58:24;;;;;;;;;;;;;;;;;;;;;
2022/09/13 07:01:10;;;;;;;14.93;13.40;;;14.50;1.00;;;;;;6048141;23;40910;-86
2022/09/13 07:03:51;;;;;;;15.13;13.10;;;14.70;1.00;;;;;;6079858;23;20413;-85
2022/09/13 07:06:40;;;;;;;14.23;12.80;;;14.70;1.00;;;;;;6077681;23;20457;-85
2022/09/13 07:09:20;;;;;;;14.83;13.23;;;14.80;1.00;;;;;;6080183;23;20433;-85
2022/09/13 07:12:00;;;;;;;19.80;15.33;;;14.80;1.00;;;;;;6080015;23;20493;-84
2022/09/13 07:14:32;;;;;;;15.73;14.13;;;14.90;1.00;;;;;;6080366;23;20420;-86
2022/09/13 07:17:03;;;;;;;15.77;13.97;;;15.00;1.00;;;;;;6081565;23;20394;-84
2022/09/13 07:19:43;;;;;;;15.80;14.17;;;15.00;1.00;;;;;;6065203;23;20441;-85
2022/09/13 07:25:11;;;;;;;14.93;13.43;;;15.10;1.00;;;;;;6083296;23;20410;-84
2022/09/13 07:27:43;;;;;;;14.17;12.80;;;15.20;1.00;;;;;;6077719;23;20433;-85
2022/09/13 07:30:32;;;;;;;15.37;13.87;;;15.20;1.00;;;;;;6079935;23;20512;-85
2022/09/13 07:33:09;;;;;;;16.90;13.30;;;15.20;1.00;;;;;;6082498;23;20427;-85
2022/09/13 07:35:53;;;;;;;16.53;14.60;;;15.20;1.00;;;;;;6046274;23;20414;-86
2022/09/13 07:38:22;;;;;;;18.03;14.67;;;15.10;1.00;;;;;;6080387;23;20486;-85
2022/09/13 07:43:46;;;;;;;17.40;15.70;;;15.10;1.00;;;;;;6062869;23;20453;-85
2022/09/13 07:46:31;;;;;;;15.67;13.77;;;15.20;1.00;;;;;;6081518;23;20401;-85
2022/09/13 07:49:21;;;;;;;15.50;13.07;;;15.30;1.00;;;;;;6078353;23;20428;-86
2022/09/13 07:52:10;;;;;;;17.63;14.07;;;15.30;1.00;;;;;;6077633;23;20512;-83
2022/09/13 07:55:02;;;;;;;13.27;11.90;;;15.50;1.00;;;;;;6082712;23;20497;-87
2022/09/13 07:57:32;;;;;;;14.67;13.13;;;15.50;1.00;;;;;;6082096;23;20436;-84
2022/09/13 08:00:05;;;;;;;16.80;15.00;;;15.60;1.00;;;;;;6080475;23;20472;-86
2022/09/13 08:02:33;;;;;;;14.07;12.57;;;15.80;1.00;;;;;;6076839;23;20479;-85
2022/09/13 08:05:39;;;;;;;15.20;13.27;;;16.10;1.00;;;;;;6068857;23;20461;-87
2022/09/13 08:11:31;;;;;;;14.60;11.93;;;16.20;1.00;;;;;;6049376;23;20441;-86
2022/09/13 08:14:23;;;;;;;12.90;11.60;;;16.40;1.00;;;;;;6053400;23;20445;-86
2022/09/13 08:17:02;;;;;;;12.53;10.97;;;16.60;1.00;;;;;;6059134;23;21110;-85
2022/09/13 08:19:43;;;;;;;13.23;11.73;;;16.80;1.00;;;;;;6076553;23;20940;-84
2022/09/13 08:22:22;;;;;;;13.73;11.23;;;16.80;1.00;;;;;;6066015;23;20430;-84
2022/09/13 08:28:13;;;;;;;11.53;10.33;;;16.90;1.00;;;;;;6046252;23;20821;-84
2022/09/13 08:34:51;;;;;;;13.60;11.80;;;17.10;1.00;;;;;;5929192;23;20448;-85
2022/09/13 08:37:33;;;;;;;13.40;11.13;;;17.30;1.00;;;;;;5944321;24;21269;-85
2022/09/13 08:40:04;;;;;;;13.10;11.70;;;17.40;1.00;;;;;;5957672;24;20918;-84
2022/09/13 08:42:54;;;;;;;11.90;10.67;;;17.60;1.00;;;;;;5947854;23;20516;-86
2022/09/13 08:45:24;;;;;;;13.50;10.50;;;17.70;1.00;;;;;;5962837;23;20950;-85
2022/09/13 08:47:56;;;;;;;12.10;10.80;;;17.80;1.00;;;;;;5956167;24;20472;-84
2022/09/13 08:50:28;;;;;;;13.07;11.67;;;18.00;1.00;;;;;;5958294;24;20425;-84
2022/09/13 08:53:07;;;;;;;12.20;10.83;;;18.20;1.00;;;;;;5956143;23;20417;-84
2022/09/13 08:55:51;;;;;;;13.53;11.07;;;18.40;1.00;;;;;;5955025;23;20765;-85
2022/09/13 08:58:48;;;;;;;12.47;11.10;;;18.60;1.00;;;;;;6053881;23;20823;-86
2022/09/13 09:01:26;;;;;;;12.80;11.03;;;18.80;1.00;;;;;;6044795;23;20401;-85
2022/09/13 09:04:03;;;;;;;13.00;10.10;;;19.00;1.00;;;;;;6075600;23;20405;-84
2022/09/13 09:06:30;;;;;;;13.50;11.20;;;19.10;1.00;;;;;;6073156;23;20396;-84
2022/09/13 09:09:04;;;;;;;15.73;11.00;;;19.00;1.00;;;;;;6075838;23;20578;-84
2022/09/13 09:11:38;;;;;;;13.90;10.60;;;19.00;1.00;;;;;;6072637;23;20443;-84
2022/09/13 09:14:12;;;;;;;15.70;11.30;;;19.20;1.00;;;;;;6073405;23;20417;-88
2022/09/13 09:16:45;;;;;;;15.73;10.50;;;19.40;1.00;;;;;;6074296;23;20433;-84
2022/09/13 09:19:19;;;;;;;14.77;10.97;;;19.70;1.00;;;;;;6074908;23;20835;-86
2022/09/13 09:21:50;;;;;;;15.37;10.70;;;20.00;1.00;;;;;;6059711;23;20453;-83
2022/09/13 09:24:24;;;;;;;14.73;11.17;;;20.30;1.00;;;;;;6072942;23;20425;-85
2022/09/13 09:26:52;;;;;;;14.40;11.13;;;20.70;1.00;;;;;;6075548;23;20390;-82
2022/09/13 09:29:24;;;;;;;12.63;10.43;;;21.20;1.00;;;;;;6073424;23;20448;-86
2022/09/13 09:32:08;;;;;;;13.70;11.20;;;22.00;1.00;;;;;;6075747;23;20481;-86
2022/09/13 09:34:49;;;;;;;15.70;10.97;;;22.90;1.00;;;;;;6074253;23;20441;-86
2022/09/13 09:37:20;;;;;;;14.23;11.73;;;23.40;1.00;;;;;;6073042;23;20445;-85
2022/09/13 09:39:52;;;;;;;12.43;9.10;;;23.30;1.00;;;;;;6075680;23;20521;-82
2022/09/13 09:42:23;;;;;;;12.27;9.20;;;23.50;1.00;;;;;;6073544;23;20460;-85
2022/09/13 09:44:53;;;;;;;14.13;10.13;;;23.70;1.00;;;;;;6075533;23;20473;-87
2022/09/13 09:47:23;;;;;;;11.90;9.33;;;24.00;1.00;;;;;;6073221;23;20521;-86
2022/09/13 09:50:09;;;;;;;13.60;9.90;;;24.10;1.00;;;;;;6073675;23;20857;-82
2022/09/13 09:52:43;;;;;;;12.20;9.60;;;24.30;1.00;;;;;;6074452;23;20929;-85
2022/09/13 09:55:27;;;;;;;10.50;8.50;;;25.60;1.00;;;;;;6071210;23;20497;-83
2022/09/13 09:57:56;;;;;;;11.47;8.20;;;27.20;1.00;;;;;;6074059;23;20400;-82
2022/09/13 10:00:25;;;;;;;11.20;8.63;;;28.40;1.00;;;;;;6075029;23;20516;-84
2022/09/13 10:02:59;;;;;;;10.97;8.03;;;28.20;1.00;;;;;;6078108;23;20502;-87
2022/09/13 10:05:27;;;;;;;11.10;9.43;;;27.30;1.00;;;;;;6077382;23;20785;-85
2022/09/13 10:07:58;;;;;;;14.00;8.50;;;26.40;1.00;;;;;;6076181;23;20512;-84
2022/09/13 10:10:36;;;;;;;11.17;8.07;;;25.80;1.00;;;;;;6072005;23;20476;-85
2022/09/13 10:13:06;;;;;;;11.47;8.50;;;25.90;1.00;;;;;;6062124;23;20577;-85
2022/09/13 10:15:34;;;;;;;9.40;7.83;;;26.90;1.00;;;;;;6070261;23;20508;-87
2022/09/13 10:18:34;;;;;;;8.63;6.67;;;27.60;1.00;;;;;;6076704;23;20445;-86
2022/09/13 10:21:04;;;;;;;11.03;7.00;;;27.60;1.00;;;;;;6074552;23;21153;-84
2022/09/13 10:23:33;;;;;;;9.20;7.50;;;26.90;1.00;;;;;;6071807;23;21372;-87
2022/09/13 10:26:08;;;;;;;10.50;7.27;;;26.20;1.00;;;;;;6074439;23;20460;-85
2022/09/13 10:28:42;;;;;;;11.80;7.30;;;25.50;1.00;;;;;;6074078;23;20445;-83
2022/09/13 10:31:12;;;;;;;9.27;7.30;;;24.80;1.00;;;;;;6076132;23;20444;-83
2022/09/13 10:33:44;;;;;;;12.47;8.63;;;24.50;1.00;;;;;;6053827;23;20437;-86
2022/09/13 10:36:16;;;;;;;13.10;8.00;;;24.20;1.00;;;;;;6076654;23;20453;-85
2022/09/13 10:38:51;;;;;;;10.60;8.77;;;24.00;1.00;;;;;;6073026;23;20914;-85
2022/09/13 10:41:26;;;;;;;11.03;7.67;;;24.10;1.00;;;;;;6071516;23;20501;-85
2022/09/13 10:43:58;;;;;;;9.83;8.10;;;24.40;1.00;;;;;;6073541;23;20564;-85
2022/09/13 10:46:27;;;;;;;10.93;8.20;;;25.20;1.00;;;;;;6074041;23;20393;-85
2022/09/13 10:48:56;;;;;;;10.70;8.00;;;26.50;1.00;;;;;;6075660;23;20440;-86
2022/09/13 10:51:35;;;;;;;10.50;8.87;;;26.70;1.00;;;;;;6075575;23;20561;-85
2022/09/13 10:54:23;;;;;;;11.67;7.67;;;26.10;1.00;;;;;;6076498;23;21268;-85
2022/09/13 10:56:55;;;;;;;11.87;8.50;;;25.20;1.00;;;;;;6067216;23;20445;-85
2022/09/13 10:59:24;;;;;;;13.13;8.63;;;24.70;1.00;;;;;;6074478;23;20524;-84
2022/09/13 11:02:08;;;;;;;11.43;8.83;;;24.30;1.00;;;;;;6075600;23;20425;-83
2022/09/13 11:05:05;;;;;;;11.10;9.20;;;23.80;1.00;;;;;;6075254;23;20847;-86
2022/09/13 11:07:48;;;;;;;13.30;10.20;;;23.30;1.00;;;;;;6079713;23;20428;-86
2022/09/13 11:10:22;;;;;;;13.10;9.40;;;23.00;1.00;;;;;;6079568;23;20496;-85
2022/09/13 11:12:57;;;;;;;12.10;8.83;;;22.60;1.00;;;;;;6081123;23;20433;-83
2022/09/13 11:15:35;;;;;;;10.90;8.47;;;22.20;1.00;;;;;;6078503;23;20427;-84
2022/09/13 11:18:29;;;;;;;11.63;9.10;;;22.10;1.00;;;;;;6080665;23;20546;-82
2022/09/13 11:24:06;;;;;;;12.80;10.13;;;22.20;1.00;;;;;;6059643;23;20439;-84
2022/09/13 11:26:54;;;;;;;11.13;8.87;;;22.10;1.00;;;;;;6078691;23;20433;-84
2022/09/13 11:29:36;;;;;;;14.53;10.80;;;22.00;1.00;;;;;;6064855;23;20427;-84
2022/09/13 11:32:16;;;;;;;13.50;10.37;;;21.80;1.00;;;;;;6079194;23;21175;-83
2022/09/13 11:34:57;;;;;;;12.83;9.70;;;21.70;1.00;;;;;;6079509;23;20416;-83
2022/09/13 11:37:41;;;;;;;12.50;9.90;;;21.50;1.00;;;;;;6084739;23;20435;-81
2022/09/13 11:40:27;;;;;;;10.43;9.17;;;21.40;1.00;;;;;;6084352;23;20393;-83
2022/09/13 11:43:08;;;;;;;13.13;9.77;;;21.30;1.00;;;;;;6054701;23;20394;-81
2022/09/13 11:45:45;;;;;;;10.90;8.93;;;21.10;1.00;;;;;;6074009;23;20422;-83
2022/09/13 11:48:46;;;;;;;11.27;9.50;;;20.90;1.00;;;;;;6080480;23;20420;-85
2022/09/13 11:51:24;;;;;;;11.33;9.33;;;20.80;1.00;;;;;;6066388;23;20413;-83
2022/09/13 11:54:07;;;;;;;11.83;9.70;;;20.80;1.00;;;;;;6077371;23;20465;-85
2022/09/13 11:56:39;;;;;;;10.73;8.87;;;20.90;1.00;;;;;;6078125;23;20432;-84
2022/09/13 11:59:18;;;;;;;11.43;10.07;;;21.00;1.00;;;;;;6078626;23;20429;-85
2022/09/13 12:01:52;;;;;;;11.60;9.63;;;20.90;1.00;;;;;;6078200;23;20490;-83
2022/09/13 12:04:27;;;;;;;11.53;9.53;;;20.70;1.00;;;;;;6077491;23;20422;-83
2022/09/13 12:07:01;;;;;;;11.83;9.37;;;20.60;1.00;;;;;;6078134;23;20405;-82
2022/09/13 12:09:32;;;;;;;13.50;9.57;;;20.60;1.00;;;;;;6077221;23;20496;-82
2022/09/13 12:12:06;;;;;;;12.50;10.17;;;20.50;1.00;;;;;;6077791;23;20430;-83
2022/09/13 12:14:42;;;;;;;13.50;10.20;;;20.50;1.00;;;;;;6074314;23;20429;-85
2022/09/13 12:17:23;;;;;;;12.83;10.27;;;20.50;1.00;;;;;;6076742;23;20405;-83
2022/09/13 12:19:54;;;;;;;13.60;10.50;;;20.30;1.00;;;;;;6078179;23;20424;-83
2022/09/13 12:22:24;;;;;;;13.70;11.17;;;20.40;1.00;;;;;;6074630;23;20489;-85
2022/09/13 12:24:57;;;;;;;14.23;11.00;;;20.50;1.00;;;;;;6075465;23;20430;-86
2022/09/13 12:27:30;;;;;;;14.40;11.40;;;20.60;1.00;;;;;;6077557;23;20530;-84
2022/09/13 12:30:04;;;;;;;14.10;10.50;;;20.70;1.00;;;;;;6078256;23;21169;-83
2022/09/13 12:32:33;;;;;;;12.87;10.10;;;20.70;1.00;;;;;;6076549;23;20562;-85
2022/09/13 12:35:05;;;;;;;13.93;10.43;;;20.60;1.00;;;;;;6079900;23;20524;-85
2022/09/13 12:38:17;;;;;;;14.33;11.20;;;20.60;1.00;;;;;;6076904;23;20435;-84
2022/09/13 12:41:03;;;;;;;13.87;11.40;;;20.50;1.00;;;;;;5958052;23;20957;-82
2022/09/13 12:44:05;;;;;;;17.60;12.10;;;20.40;1.00;;;;;;6064298;23;20425;-84
2022/09/13 12:46:51;;;;;;;16.10;12.50;;;20.30;1.00;;;;;;6080630;23;20776;-86
2022/09/13 12:49:40;;;;;;;16.07;11.40;;;20.30;1.00;;;;;;6078253;23;20453;-83
2022/09/13 12:52:23;;;;;;;14.83;11.93;;;20.40;1.00;;;;;;6081125;23;20417;-84
2022/09/13 12:55:14;;;;;;;14.73;11.60;;;20.40;1.00;;;;;;6077656;23;20503;-84
2022/09/13 12:57:52;;;;;;;15.47;12.80;;;20.40;1.00;;;;;;6074601;23;20390;-81
2022/09/13 13:00:34;;;;;;;13.33;11.23;;;20.50;1.00;;;;;;6074345;23;20445;-83
2022/09/13 13:03:10;;;;;;;17.37;12.20;;;20.50;1.00;;;;;;6064230;23;20390;-83
2022/09/13 13:05:43;;;;;;;14.23;12.20;;;20.60;1.00;;;;;;6076732;23;20393;-81
2022/09/13 13:08:28;;;;;;;16.30;13.13;;;20.60;1.00;;;;;;6077662;23;20394;-82
2022/09/13 13:11:04;;;;;;;15.00;12.70;;;20.60;1.00;;;;;;6053315;23;20429;-82
2022/09/13 13:13:39;;;;;;;16.40;13.60;;;20.60;1.00;;;;;;6077421;23;20399;-83
2022/09/13 13:16:22;;;;;;;14.90;12.63;;;20.60;1.00;;;;;;6062630;23;20489;-82
2022/09/13 13:18:58;;;;;;;14.60;12.00;;;20.70;1.00;;;;;;6076047;23;20444;-83
2022/09/13 13:21:46;;;;;;;15.37;12.67;;;20.90;1.00;;;;;;6045973;23;20873;-82
2022/09/13 13:24:38;;;;;;;16.93;14.50;;;21.20;1.00;;;;;;6076129;23;20779;-83
2022/09/13 13:27:35;;;;;;;14.87;12.90;;;21.50;1.00;;;;;;6077486;23;20405;-82
2022/09/13 13:30:50;;;;;;;16.03;13.40;;;21.40;1.00;;;;;;6071184;23;20501;-80
2022/09/13 13:33:27;;;;;;;14.97;12.60;;;21.20;1.00;;;;;;6050177;23;20433;-80
2022/09/13 13:35:54;;;;;;;14.00;12.57;;;21.00;1.00;;;;;;6076011;23;20516;-82
2022/09/13 13:38:50;;;;;;;15.60;14.00;;;20.90;1.00;;;;;;6076338;23;20449;-84
2022/09/13 13:41:39;;;;;;;15.03;13.50;;;20.90;1.00;;;;;;6074540;23;20831;-81
2022/09/13 13:44:46;;;;;;;19.23;14.43;;;20.90;1.00;;;;;;6076353;23;20635;-82
2022/09/13 13:47:52;;;;;;;15.03;13.00;;;20.90;1.00;;;;;;6072760;23;20540;-83
2022/09/13 13:50:20;;;;;;;13.00;11.50;;;20.90;1.00;;;;;;6027514;23;20492;-81
2022/09/13 13:53:04;;;;;;;11.83;10.10;;;21.10;1.00;;;;;;6075265;23;20773;-81
2022/09/13 13:55:44;;;;;;;13.30;10.67;;;21.40;1.00;;;;;;6049801;23;20437;-80
2022/09/13 13:58:28;;;;;;;16.37;13.77;;;21.50;1.00;;;;;;6076362;23;20910;-81
2022/09/13 14:00:58;;;;;;;13.00;10.67;;;21.60;1.00;;;;;;6071575;23;20457;-81
2022/09/13 14:03:35;;;;;;;14.80;10.90;;;21.80;1.00;;;;;;6075923;23;20434;-80
2022/09/13 14:06:11;;;;;;;15.90;11.27;;;22.10;1.00;;;;;;6048282;23;20483;-81
2022/09/13 14:08:52;;;;;;;11.87;9.37;;;22.10;1.00;;;;;;6075400;23;20449;-81
2022/09/13 14:11:36;;;;;;;16.03;11.23;;;22.00;1.00;;;;;;6073153;23;20453;-82